sensor_id;sensor_type;location;lat;lon;timestamp;temperature;humidity
9980;DHT22;5030;51.532;6.766;2023-02-01T00:01:59;5.60;99.90
9980;DHT22;5030;51.532;6.766;2023-02-01T00:04:25;5.60;99.90
9980;DHT22;5030;51.532;6.766;2023-02-01T00:06:51;5.50;99.90
9980;DHT22;5030;51.532;6.766;2023-02-01T00:09:16;5.50;99.90
9980;DHT22;5030;51.532;6.766;2023-02-01T00:11:42;5.50;99.90
9980;DHT22;5030;51.532;6.766;2023-02-01T00:14:07;5.60;99.90
9980;DHT22;5030;51.532;6.766;2023-02-01T00:16:33;5.60;99.90
9980;DHT22;5030;51.532;6.766;2023-02-01T00:19:09;5.60;99.90
9980;DHT22;5030;51.532;6.766;2023-02-01T00:21:35;5.60;99.90
9980;DHT22;5030;51.532;6.766;2023-02-01T00:24:01;5.60;99.90
9980;DHT22;5030;51.532;6.766;2023-02-01T00:26:39;5.50;99.90
9980;DHT22;5030;51.532;6.766;2023-02-01T00:29:11;5.60;99.90
9980;DHT22;5030;51.532;6.766;2023-02-01T00:31:37;5.60;99.90
9980;DHT22;5030;51.532;6.766;2023-02-01T00:34:03;5.70;99.90
9980;DHT22;5030;51.532;6.766;2023-02-01T00:36:29;5.60;99.90
9980;DHT22;5030;51.532;6.766;2023-02-01T00:38:55;5.60;99.90
9980;DHT22;5030;51.532;6.766;2023-02-01T00:41:21;5.60;99.90
9980;DHT22;5030;51.532;6.766;2023-02-01T00:43:48;5.60;99.90
9980;DHT22;5030;51.532;6.766;2023-02-01T00:46:15;5.60;99.90
9980;DHT22;5030;51.532;6.766;2023-02-01T00:48:41;5.60;99.90
9980;DHT22;5030;51.532;6.766;2023-02-01T00:51:12;5.60;99.90
9980;DHT22;5030;51.532;6.766;2023-02-01T00:53:38;5.60;99.90
9980;DHT22;5030;51.532;6.766;2023-02-01T00:56:05;5.60;99.90
9980;DHT22;5030;51.532;6.766;2023-02-01T00:58:31;5.60;99.90
9980;DHT22;5030;51.532;6.766;2023-02-01T01:01:21;5.60;99.90
9980;DHT22;5030;51.532;6.766;2023-02-01T01:03:56;5.70;99.90
9980;DHT22;5030;51.532;6.766;2023-02-01T01:06:28;5.80;99.90
9980;DHT22;5030;51.532;6.766;2023-02-01T01:08:55;5.80;99.90
9980;DHT22;5030;51.532;6.766;2023-02-01T01:11:24;5.90;99.90
9980;DHT22;5030;51.532;6.766;2023-02-01T01:13:51;5.90;99.90
9980;DHT22;5030;51.532;6.766;2023-02-01T01:16:17;5.80;99.90
9980;DHT22;5030;51.532;6.766;2023-02-01T01:18:44;5.90;99.90
9980;DHT22;5030;51.532;6.766;2023-02-01T01:21:12;6.00;99.90
9980;DHT22;5030;51.532;6.766;2023-02-01T01:23:38;6.00;99.90
9980;DHT22;5030;51.532;6.766;2023-02-01T01:26:08;5.90;99.90
9980;DHT22;5030;51.532;6.766;2023-02-01T01:28:35;5.90;99.90
9980;DHT22;5030;51.532;6.766;2023-02-01T01:31:01;5.80;99.90
9980;DHT22;5030;51.532;6.766;2023-02-01T01:33:26;5.90;99.90
9980;DHT22;5030;51.532;6.766;2023-02-01T01:35:52;5.90;99.90
9980;DHT22;5030;51.532;6.766;2023-02-01T01:38:17;5.90;99.90
9980;DHT22;5030;51.532;6.766;2023-02-01T01:40:47;5.90;99.90
9980;DHT22;5030;51.532;6.766;2023-02-01T01:43:16;5.90;99.90
9980;DHT22;5030;51.532;6.766;2023-02-01T01:45:42;5.90;99.90
9980;DHT22;5030;51.532;6.766;2023-02-01T01:48:24;5.80;99.90
9980;DHT22;5030;51.532;6.766;2023-02-01T01:50:57;5.80;99.90
9980;DHT22;5030;51.532;6.766;2023-02-01T01:53:28;5.90;99.90
9980;DHT22;5030;51.532;6.766;2023-02-01T01:55:56;5.90;99.90
9980;DHT22;5030;51.532;6.766;2023-02-01T01:58:24;5.80;99.90
9980;DHT22;5030;51.532;6.766;2023-02-01T02:00:52;5.80;99.90
9980;DHT22;5030;51.532;6.766;2023-02-01T02:03:27;5.80;99.90
9980;DHT22;5030;51.532;6.766;2023-02-01T02:05:55;5.90;99.90
9980;DHT22;5030;51.532;6.766;2023-02-01T02:08:25;5.80;99.90
9980;DHT22;5030;51.532;6.766;2023-02-01T02:10:52;5.70;99.90
9980;DHT22;5030;51.532;6.766;2023-02-01T02:13:39;5.70;99.90
9980;DHT22;5030;51.532;6.766;2023-02-01T02:19:08;5.70;99.90
9980;DHT22;5030;51.532;6.766;2023-02-01T02:42:14;5.60;99.90
9980;DHT22;5030;51.532;6.766;2023-02-01T02:45:08;5.40;99.90
9980;DHT22;5030;51.532;6.766;2023-02-01T02:50:37;5.30;99.90
9980;DHT22;5030;51.532;6.766;2023-02-01T02:53:46;5.40;99.90
9980;DHT22;5030;51.532;6.766;2023-02-01T02:59:17;5.40;99.90
9980;DHT22;5030;51.532;6.766;2023-02-01T03:02:04;5.40;99.90
9980;DHT22;5030;51.532;6.766;2023-02-01T03:04:53;5.30;99.90
9980;DHT22;5030;51.532;6.766;2023-02-01T03:10:40;5.40;99.90
9980;DHT22;5030;51.532;6.766;2023-02-01T03:13:34;5.40;99.90
9980;DHT22;5030;51.532;6.766;2023-02-01T03:21:51;5.30;99.90
9980;DHT22;5030;51.532;6.766;2023-02-01T03:24:44;5.30;99.90
9980;DHT22;5030;51.532;6.766;2023-02-01T03:27:19;5.30;99.90
9980;DHT22;5030;51.532;6.766;2023-02-01T03:32:16;5.40;99.90
9980;DHT22;5030;51.532;6.766;2023-02-01T03:34:43;5.50;99.90
9980;DHT22;5030;51.532;6.766;2023-02-01T03:37:10;5.50;99.90
9980;DHT22;5030;51.532;6.766;2023-02-01T03:39:46;5.40;99.90
9980;DHT22;5030;51.532;6.766;2023-02-01T03:42:18;5.40;99.90
9980;DHT22;5030;51.532;6.766;2023-02-01T03:44:54;5.40;99.90
9980;DHT22;5030;51.532;6.766;2023-02-01T03:47:28;5.50;99.90
9980;DHT22;5030;51.532;6.766;2023-02-01T03:50:18;5.50;99.90
9980;DHT22;5030;51.532;6.766;2023-02-01T03:52:51;5.50;99.90
9980;DHT22;5030;51.532;6.766;2023-02-01T03:55:19;5.50;99.90
9980;DHT22;5030;51.532;6.766;2023-02-01T03:57:52;5.60;99.90
9980;DHT22;5030;51.532;6.766;2023-02-01T04:00:21;5.60;99.90
9980;DHT22;5030;51.532;6.766;2023-02-01T04:02:47;5.60;99.90
9980;DHT22;5030;51.532;6.766;2023-02-01T04:05:13;5.60;99.90
9980;DHT22;5030;51.532;6.766;2023-02-01T04:07:39;5.60;99.90
9980;DHT22;5030;51.532;6.766;2023-02-01T04:10:05;5.60;99.90
9980;DHT22;5030;51.532;6.766;2023-02-01T04:12:31;5.50;99.90
9980;DHT22;5030;51.532;6.766;2023-02-01T04:14:57;5.50;99.90
9980;DHT22;5030;51.532;6.766;2023-02-01T04:17:23;5.50;99.90
9980;DHT22;5030;51.532;6.766;2023-02-01T04:19:49;5.50;99.90
9980;DHT22;5030;51.532;6.766;2023-02-01T04:22:15;5.40;99.90
9980;DHT22;5030;51.532;6.766;2023-02-01T04:24:40;5.40;99.90
9980;DHT22;5030;51.532;6.766;2023-02-01T04:27:07;5.40;99.90
9980;DHT22;5030;51.532;6.766;2023-02-01T04:29:33;5.40;99.90
9980;DHT22;5030;51.532;6.766;2023-02-01T04:32:00;5.40;99.90
9980;DHT22;5030;51.532;6.766;2023-02-01T04:34:25;5.50;99.90
9980;DHT22;5030;51.532;6.766;2023-02-01T04:36:51;5.50;99.90
9980;DHT22;5030;51.532;6.766;2023-02-01T04:39:17;5.50;99.90
9980;DHT22;5030;51.532;6.766;2023-02-01T04:41:43;5.60;99.90
9980;DHT22;5030;51.532;6.766;2023-02-01T04:44:27;5.60;99.90
9980;DHT22;5030;51.532;6.766;2023-02-01T04:46:53;5.60;99.90
9980;DHT22;5030;51.532;6.766;2023-02-01T04:49:19;5.70;99.90
9980;DHT22;5030;51.532;6.766;2023-02-01T04:51:46;5.70;99.90
9980;DHT22;5030;51.532;6.766;2023-02-01T04:54:12;5.60;99.90
9980;DHT22;5030;51.532;6.766;2023-02-01T04:56:38;5.70;99.90
9980;DHT22;5030;51.532;6.766;2023-02-01T04:59:04;5.60;99.90
9980;DHT22;5030;51.532;6.766;2023-02-01T05:01:30;5.50;99.90
9980;DHT22;5030;51.532;6.766;2023-02-01T05:03:56;5.30;99.90
9980;DHT22;5030;51.532;6.766;2023-02-01T05:06:22;5.30;99.90
9980;DHT22;5030;51.532;6.766;2023-02-01T05:08:47;5.30;99.90
9980;DHT22;5030;51.532;6.766;2023-02-01T05:11:13;5.30;99.90
9980;DHT22;5030;51.532;6.766;2023-02-01T05:13:59;5.20;99.90
9980;DHT22;5030;51.532;6.766;2023-02-01T05:16:25;5.20;99.90
9980;DHT22;5030;51.532;6.766;2023-02-01T05:18:51;5.20;99.90
9980;DHT22;5030;51.532;6.766;2023-02-01T05:21:17;5.20;99.90
9980;DHT22;5030;51.532;6.766;2023-02-01T05:23:43;5.20;99.90
9980;DHT22;5030;51.532;6.766;2023-02-01T05:26:27;5.10;99.90
9980;DHT22;5030;51.532;6.766;2023-02-01T05:28:53;5.20;99.90
9980;DHT22;5030;51.532;6.766;2023-02-01T05:31:18;5.20;99.90
9980;DHT22;5030;51.532;6.766;2023-02-01T05:33:44;5.10;99.90
9980;DHT22;5030;51.532;6.766;2023-02-01T05:36:09;5.10;99.90
9980;DHT22;5030;51.532;6.766;2023-02-01T05:38:35;5.00;99.90
9980;DHT22;5030;51.532;6.766;2023-02-01T05:41:01;5.00;99.90
9980;DHT22;5030;51.532;6.766;2023-02-01T05:43:27;5.00;99.90
9980;DHT22;5030;51.532;6.766;2023-02-01T05:45:53;5.00;99.90
9980;DHT22;5030;51.532;6.766;2023-02-01T05:48:19;5.00;99.90
9980;DHT22;5030;51.532;6.766;2023-02-01T05:50:45;5.00;99.90
9980;DHT22;5030;51.532;6.766;2023-02-01T05:53:11;5.10;99.90
9980;DHT22;5030;51.532;6.766;2023-02-01T05:55:38;5.20;99.90
9980;DHT22;5030;51.532;6.766;2023-02-01T05:58:04;5.20;99.90
9980;DHT22;5030;51.532;6.766;2023-02-01T06:00:30;5.20;99.90
9980;DHT22;5030;51.532;6.766;2023-02-01T06:02:56;5.20;99.90
9980;DHT22;5030;51.532;6.766;2023-02-01T06:05:22;5.30;99.90
9980;DHT22;5030;51.532;6.766;2023-02-01T06:07:48;5.30;99.90
9980;DHT22;5030;51.532;6.766;2023-02-01T06:10:16;5.40;99.90
9980;DHT22;5030;51.532;6.766;2023-02-01T06:12:42;5.40;99.90
9980;DHT22;5030;51.532;6.766;2023-02-01T06:15:08;5.40;99.90
9980;DHT22;5030;51.532;6.766;2023-02-01T06:17:34;5.40;99.90
9980;DHT22;5030;51.532;6.766;2023-02-01T06:19:59;5.40;99.90
9980;DHT22;5030;51.532;6.766;2023-02-01T06:22:25;5.40;99.90
9980;DHT22;5030;51.532;6.766;2023-02-01T06:24:51;5.50;99.90
9980;DHT22;5030;51.532;6.766;2023-02-01T06:27:16;5.40;99.90
9980;DHT22;5030;51.532;6.766;2023-02-01T06:29:42;5.50;99.90
9980;DHT22;5030;51.532;6.766;2023-02-01T06:32:07;5.40;99.90
9980;DHT22;5030;51.532;6.766;2023-02-01T06:34:34;5.40;99.90
9980;DHT22;5030;51.532;6.766;2023-02-01T06:37:00;5.40;99.90
9980;DHT22;5030;51.532;6.766;2023-02-01T06:39:25;5.50;99.90
9980;DHT22;5030;51.532;6.766;2023-02-01T06:41:53;5.50;99.90
9980;DHT22;5030;51.532;6.766;2023-02-01T06:44:18;5.60;99.90
9980;DHT22;5030;51.532;6.766;2023-02-01T06:46:44;5.50;99.90
9980;DHT22;5030;51.532;6.766;2023-02-01T06:49:10;5.50;99.90
9980;DHT22;5030;51.532;6.766;2023-02-01T06:51:36;5.50;99.90
9980;DHT22;5030;51.532;6.766;2023-02-01T06:54:01;5.60;99.90
9980;DHT22;5030;51.532;6.766;2023-02-01T06:56:27;5.60;99.90
9980;DHT22;5030;51.532;6.766;2023-02-01T06:58:53;5.60;99.90
9980;DHT22;5030;51.532;6.766;2023-02-01T07:01:19;5.60;99.90
9980;DHT22;5030;51.532;6.766;2023-02-01T07:03:50;5.60;99.90
9980;DHT22;5030;51.532;6.766;2023-02-01T07:06:16;5.50;99.90
9980;DHT22;5030;51.532;6.766;2023-02-01T07:08:43;5.60;99.90
9980;DHT22;5030;51.532;6.766;2023-02-01T07:11:11;5.50;99.90
9980;DHT22;5030;51.532;6.766;2023-02-01T07:13:37;5.60;99.90
9980;DHT22;5030;51.532;6.766;2023-02-01T07:16:05;5.60;99.90
9980;DHT22;5030;51.532;6.766;2023-02-01T07:18:32;5.70;99.90
9980;DHT22;5030;51.532;6.766;2023-02-01T07:20:58;5.70;99.90
9980;DHT22;5030;51.532;6.766;2023-02-01T07:23:26;5.60;99.90
9980;DHT22;5030;51.532;6.766;2023-02-01T07:25:56;5.60;99.90
9980;DHT22;5030;51.532;6.766;2023-02-01T07:28:22;5.70;99.90
9980;DHT22;5030;51.532;6.766;2023-02-01T07:30:48;5.60;99.90
9980;DHT22;5030;51.532;6.766;2023-02-01T07:33:18;5.60;99.90
9980;DHT22;5030;51.532;6.766;2023-02-01T07:35:44;5.70;99.90
9980;DHT22;5030;51.532;6.766;2023-02-01T07:38:10;5.70;99.90
9980;DHT22;5030;51.532;6.766;2023-02-01T07:40:35;5.60;99.90
9980;DHT22;5030;51.532;6.766;2023-02-01T07:43:01;5.70;99.90
9980;DHT22;5030;51.532;6.766;2023-02-01T07:45:27;5.70;99.90
9980;DHT22;5030;51.532;6.766;2023-02-01T07:47:52;5.60;99.90
9980;DHT22;5030;51.532;6.766;2023-02-01T07:50:21;5.70;99.90
9980;DHT22;5030;51.532;6.766;2023-02-01T07:52:46;5.70;99.90
9980;DHT22;5030;51.532;6.766;2023-02-01T07:55:12;5.70;99.90
9980;DHT22;5030;51.532;6.766;2023-02-01T07:57:38;5.80;99.90
9980;DHT22;5030;51.532;6.766;2023-02-01T08:00:04;5.70;99.90
9980;DHT22;5030;51.532;6.766;2023-02-01T08:02:48;5.70;99.90
9980;DHT22;5030;51.532;6.766;2023-02-01T08:05:13;5.70;99.90
9980;DHT22;5030;51.532;6.766;2023-02-01T08:07:39;5.60;99.90
9980;DHT22;5030;51.532;6.766;2023-02-01T08:10:05;5.60;99.90
9980;DHT22;5030;51.532;6.766;2023-02-01T08:12:36;5.60;99.90
9980;DHT22;5030;51.532;6.766;2023-02-01T08:15:02;5.70;99.90
9980;DHT22;5030;51.532;6.766;2023-02-01T08:17:28;5.70;99.90
9980;DHT22;5030;51.532;6.766;2023-02-01T08:19:54;5.60;99.90
9980;DHT22;5030;51.532;6.766;2023-02-01T08:22:20;5.60;99.90
9980;DHT22;5030;51.532;6.766;2023-02-01T08:24:49;5.60;99.90
9980;DHT22;5030;51.532;6.766;2023-02-01T08:27:15;5.60;99.90
9980;DHT22;5030;51.532;6.766;2023-02-01T08:29:41;5.60;99.90
9980;DHT22;5030;51.532;6.766;2023-02-01T08:32:06;5.60;99.90
9980;DHT22;5030;51.532;6.766;2023-02-01T08:34:32;5.60;99.90
9980;DHT22;5030;51.532;6.766;2023-02-01T08:36:58;5.70;99.90
9980;DHT22;5030;51.532;6.766;2023-02-01T08:39:25;5.80;99.90
9980;DHT22;5030;51.532;6.766;2023-02-01T08:41:50;5.80;99.90
9980;DHT22;5030;51.532;6.766;2023-02-01T08:44:34;5.90;99.90
9980;DHT22;5030;51.532;6.766;2023-02-01T08:47:01;6.00;99.90
9980;DHT22;5030;51.532;6.766;2023-02-01T08:49:26;6.00;99.90
9980;DHT22;5030;51.532;6.766;2023-02-01T08:51:52;6.10;99.90
9980;DHT22;5030;51.532;6.766;2023-02-01T08:54:18;6.00;99.90
9980;DHT22;5030;51.532;6.766;2023-02-01T08:56:43;6.00;99.90
9980;DHT22;5030;51.532;6.766;2023-02-01T08:59:09;6.00;99.90
9980;DHT22;5030;51.532;6.766;2023-02-01T09:01:35;6.00;99.90
9980;DHT22;5030;51.532;6.766;2023-02-01T09:04:00;6.00;99.90
9980;DHT22;5030;51.532;6.766;2023-02-01T09:06:26;5.90;99.90
9980;DHT22;5030;51.532;6.766;2023-02-01T09:08:51;6.00;99.90
9980;DHT22;5030;51.532;6.766;2023-02-01T09:11:18;6.00;99.90
9980;DHT22;5030;51.532;6.766;2023-02-01T09:13:47;6.00;99.90
9980;DHT22;5030;51.532;6.766;2023-02-01T09:16:13;6.00;99.90
9980;DHT22;5030;51.532;6.766;2023-02-01T09:18:40;6.10;99.90
9980;DHT22;5030;51.532;6.766;2023-02-01T09:21:07;6.10;99.90
9980;DHT22;5030;51.532;6.766;2023-02-01T09:23:37;6.10;99.90
9980;DHT22;5030;51.532;6.766;2023-02-01T09:26:05;6.00;99.90
9980;DHT22;5030;51.532;6.766;2023-02-01T09:28:35;6.10;99.90
9980;DHT22;5030;51.532;6.766;2023-02-01T09:31:09;6.10;99.90
9980;DHT22;5030;51.532;6.766;2023-02-01T09:33:35;6.10;99.90
9980;DHT22;5030;51.532;6.766;2023-02-01T09:36:03;6.20;99.90
9980;DHT22;5030;51.532;6.766;2023-02-01T09:38:30;6.30;99.90
9980;DHT22;5030;51.532;6.766;2023-02-01T09:40:58;6.20;99.90
9980;DHT22;5030;51.532;6.766;2023-02-01T09:46:26;6.40;99.90
9980;DHT22;5030;51.532;6.766;2023-02-01T09:49:02;6.40;99.90
9980;DHT22;5030;51.532;6.766;2023-02-01T09:51:45;6.40;99.90
9980;DHT22;5030;51.532;6.766;2023-02-01T09:54:42;6.50;99.90
9980;DHT22;5030;51.532;6.766;2023-02-01T09:57:19;6.50;99.90
9980;DHT22;5030;51.532;6.766;2023-02-01T10:00:19;6.50;99.90
9980;DHT22;5030;51.532;6.766;2023-02-01T10:02:56;6.60;99.90
9980;DHT22;5030;51.532;6.766;2023-02-01T10:11:32;6.50;99.90
9980;DHT22;5030;51.532;6.766;2023-02-01T10:20:23;6.70;99.90
9980;DHT22;5030;51.532;6.766;2023-02-01T10:26:23;6.80;99.90
9980;DHT22;5030;51.532;6.766;2023-02-01T10:28:56;6.80;99.90
9980;DHT22;5030;51.532;6.766;2023-02-01T10:31:38;6.80;99.90
9980;DHT22;5030;51.532;6.766;2023-02-01T10:37:22;6.70;99.90
9980;DHT22;5030;51.532;6.766;2023-02-01T10:39:54;6.80;99.90
9980;DHT22;5030;51.532;6.766;2023-02-01T10:42:24;6.80;99.90
9980;DHT22;5030;51.532;6.766;2023-02-01T10:44:51;7.00;99.90
9980;DHT22;5030;51.532;6.766;2023-02-01T10:47:19;7.00;99.90
9980;DHT22;5030;51.532;6.766;2023-02-01T10:54:54;7.00;99.90
9980;DHT22;5030;51.532;6.766;2023-02-01T10:57:25;7.10;99.90
9980;DHT22;5030;51.532;6.766;2023-02-01T10:59:55;7.10;99.90
9980;DHT22;5030;51.532;6.766;2023-02-01T11:02:35;7.20;99.90
9980;DHT22;5030;51.532;6.766;2023-02-01T11:05:09;7.30;99.90
9980;DHT22;5030;51.532;6.766;2023-02-01T11:07:39;7.30;99.90
9980;DHT22;5030;51.532;6.766;2023-02-01T11:10:38;7.30;99.90
9980;DHT22;5030;51.532;6.766;2023-02-01T11:13:04;7.30;99.90
9980;DHT22;5030;51.532;6.766;2023-02-01T11:15:30;7.30;99.90
9980;DHT22;5030;51.532;6.766;2023-02-01T11:17:57;7.20;99.90
9980;DHT22;5030;51.532;6.766;2023-02-01T11:20:38;7.30;99.90
9980;DHT22;5030;51.532;6.766;2023-02-01T11:23:15;7.30;99.90
9980;DHT22;5030;51.532;6.766;2023-02-01T11:25:58;7.20;99.90
9980;DHT22;5030;51.532;6.766;2023-02-01T11:28:30;7.10;99.90
9980;DHT22;5030;51.532;6.766;2023-02-01T11:31:06;7.20;99.90
9980;DHT22;5030;51.532;6.766;2023-02-01T11:33:37;7.40;99.90
9980;DHT22;5030;51.532;6.766;2023-02-01T11:36:15;7.30;99.90
9980;DHT22;5030;51.532;6.766;2023-02-01T11:39:18;7.30;99.90
9980;DHT22;5030;51.532;6.766;2023-02-01T11:42:12;7.10;99.90
9980;DHT22;5030;51.532;6.766;2023-02-01T11:44:41;6.90;99.90
9980;DHT22;5030;51.532;6.766;2023-02-01T11:49:50;6.60;99.90
9980;DHT22;5030;51.532;6.766;2023-02-01T11:52:41;6.60;99.90
9980;DHT22;5030;51.532;6.766;2023-02-01T11:55:55;6.50;99.90
9980;DHT22;5030;51.532;6.766;2023-02-01T11:58:35;6.40;99.90
9980;DHT22;5030;51.532;6.766;2023-02-01T12:12:20;6.50;99.90
9980;DHT22;5030;51.532;6.766;2023-02-01T12:42:44;7.30;99.90
9980;DHT22;5030;51.532;6.766;2023-02-01T12:48:24;7.30;99.90
9980;DHT22;5030;51.532;6.766;2023-02-01T12:51:12;7.40;99.90
9980;DHT22;5030;51.532;6.766;2023-02-01T12:53:46;7.40;99.90
9980;DHT22;5030;51.532;6.766;2023-02-01T12:57:00;7.30;99.90
9980;DHT22;5030;51.532;6.766;2023-02-01T12:59:23;7.30;99.90
9980;DHT22;5030;51.532;6.766;2023-02-01T13:01:56;7.30;99.90
9980;DHT22;5030;51.532;6.766;2023-02-01T13:07:14;7.30;99.90
9980;DHT22;5030;51.532;6.766;2023-02-01T13:09:51;7.40;99.90
9980;DHT22;5030;51.532;6.766;2023-02-01T13:12:32;7.40;99.90
9980;DHT22;5030;51.532;6.766;2023-02-01T13:15:20;7.50;99.90
9980;DHT22;5030;51.532;6.766;2023-02-01T13:17:47;7.50;99.90
9980;DHT22;5030;51.532;6.766;2023-02-01T13:20:47;7.50;99.90
9980;DHT22;5030;51.532;6.766;2023-02-01T13:23:24;7.60;99.90
9980;DHT22;5030;51.532;6.766;2023-02-01T13:25:51;7.60;99.90
9980;DHT22;5030;51.532;6.766;2023-02-01T13:40:44;7.80;99.90
9980;DHT22;5030;51.532;6.766;2023-02-01T13:43:29;7.90;99.90
9980;DHT22;5030;51.532;6.766;2023-02-01T13:46:03;7.80;99.90
9980;DHT22;5030;51.532;6.766;2023-02-01T13:48:39;7.80;99.90
9980;DHT22;5030;51.532;6.766;2023-02-01T13:51:06;7.80;99.90
9980;DHT22;5030;51.532;6.766;2023-02-01T13:53:35;7.80;99.90
9980;DHT22;5030;51.532;6.766;2023-02-01T13:56:20;7.90;99.90
9980;DHT22;5030;51.532;6.766;2023-02-01T13:58:56;7.80;99.90
9980;DHT22;5030;51.532;6.766;2023-02-01T14:01:43;7.80;99.90
9980;DHT22;5030;51.532;6.766;2023-02-01T14:04:47;7.90;99.90
9980;DHT22;5030;51.532;6.766;2023-02-01T14:07:21;7.90;99.90
9980;DHT22;5030;51.532;6.766;2023-02-01T14:09:47;7.90;99.90
9980;DHT22;5030;51.532;6.766;2023-02-01T14:12:43;7.90;99.90
9980;DHT22;5030;51.532;6.766;2023-02-01T14:15:26;7.80;99.90
9980;DHT22;5030;51.532;6.766;2023-02-01T14:17:57;7.90;99.90
9980;DHT22;5030;51.532;6.766;2023-02-01T14:20:42;7.90;99.90
9980;DHT22;5030;51.532;6.766;2023-02-01T14:23:17;7.90;99.90
9980;DHT22;5030;51.532;6.766;2023-02-01T14:25:48;8.00;99.90
9980;DHT22;5030;51.532;6.766;2023-02-01T14:28:30;8.00;99.90
9980;DHT22;5030;51.532;6.766;2023-02-01T14:31:03;8.10;99.90
9980;DHT22;5030;51.532;6.766;2023-02-01T14:33:44;8.10;99.90
9980;DHT22;5030;51.532;6.766;2023-02-01T14:36:13;8.10;99.90
9980;DHT22;5030;51.532;6.766;2023-02-01T14:38:48;8.10;99.90
9980;DHT22;5030;51.532;6.766;2023-02-01T14:41:31;8.20;99.90
9980;DHT22;5030;51.532;6.766;2023-02-01T14:44:13;8.20;99.90
9980;DHT22;5030;51.532;6.766;2023-02-01T14:47:07;8.10;99.90
9980;DHT22;5030;51.532;6.766;2023-02-01T14:50:02;8.10;99.90
9980;DHT22;5030;51.532;6.766;2023-02-01T14:52:45;8.00;99.90
9980;DHT22;5030;51.532;6.766;2023-02-01T14:55:24;8.00;99.90
9980;DHT22;5030;51.532;6.766;2023-02-01T14:57:54;8.00;99.90
9980;DHT22;5030;51.532;6.766;2023-02-01T15:00:29;8.00;99.90
9980;DHT22;5030;51.532;6.766;2023-02-01T15:04:00;8.10;99.90
9980;DHT22;5030;51.532;6.766;2023-02-01T15:06:13;8.10;99.90
9980;DHT22;5030;51.532;6.766;2023-02-01T15:08:46;8.10;99.90
9980;DHT22;5030;51.532;6.766;2023-02-01T15:11:15;8.20;99.90
9980;DHT22;5030;51.532;6.766;2023-02-01T15:13:49;8.20;99.90
9980;DHT22;5030;51.532;6.766;2023-02-01T15:16:16;8.20;99.90
9980;DHT22;5030;51.532;6.766;2023-02-01T15:18:45;8.10;99.90
9980;DHT22;5030;51.532;6.766;2023-02-01T15:21:22;8.20;99.90
9980;DHT22;5030;51.532;6.766;2023-02-01T15:24:10;8.10;99.90
9980;DHT22;5030;51.532;6.766;2023-02-01T15:26:36;8.20;99.90
9980;DHT22;5030;51.532;6.766;2023-02-01T15:29:01;8.20;99.90
9980;DHT22;5030;51.532;6.766;2023-02-01T15:31:38;8.20;99.90
9980;DHT22;5030;51.532;6.766;2023-02-01T15:34:06;8.10;99.90
9980;DHT22;5030;51.532;6.766;2023-02-01T15:36:32;8.10;99.90
9980;DHT22;5030;51.532;6.766;2023-02-01T15:39:31;8.10;99.90
9980;DHT22;5030;51.532;6.766;2023-02-01T15:42:08;8.10;99.90
9980;DHT22;5030;51.532;6.766;2023-02-01T15:47:17;8.10;99.90
9980;DHT22;5030;51.532;6.766;2023-02-01T15:49:47;8.10;99.90
9980;DHT22;5030;51.532;6.766;2023-02-01T15:54:56;8.10;99.90
9980;DHT22;5030;51.532;6.766;2023-02-01T15:57:27;8.10;99.90
9980;DHT22;5030;51.532;6.766;2023-02-01T16:00:03;8.00;99.90
9980;DHT22;5030;51.532;6.766;2023-02-01T16:04:58;8.10;99.90
9980;DHT22;5030;51.532;6.766;2023-02-01T16:07:31;8.10;99.90
9980;DHT22;5030;51.532;6.766;2023-02-01T16:09:59;8.10;99.90
9980;DHT22;5030;51.532;6.766;2023-02-01T16:12:45;8.00;99.90
9980;DHT22;5030;51.532;6.766;2023-02-01T16:15:11;8.10;99.90
9980;DHT22;5030;51.532;6.766;2023-02-01T16:17:37;7.90;99.90
9980;DHT22;5030;51.532;6.766;2023-02-01T16:20:03;7.60;99.90
9980;DHT22;5030;51.532;6.766;2023-02-01T16:22:28;7.50;99.90
9980;DHT22;5030;51.532;6.766;2023-02-01T16:24:54;7.40;99.90
9980;DHT22;5030;51.532;6.766;2023-02-01T16:27:20;7.30;99.90
9980;DHT22;5030;51.532;6.766;2023-02-01T16:29:48;7.30;99.90
9980;DHT22;5030;51.532;6.766;2023-02-01T16:32:19;7.20;99.90
9980;DHT22;5030;51.532;6.766;2023-02-01T16:34:46;7.30;99.90
9980;DHT22;5030;51.532;6.766;2023-02-01T16:37:21;7.40;99.90
9980;DHT22;5030;51.532;6.766;2023-02-01T16:39:47;7.30;99.90
9980;DHT22;5030;51.532;6.766;2023-02-01T16:42:15;7.40;99.90
9980;DHT22;5030;51.532;6.766;2023-02-01T16:44:41;7.50;99.90
9980;DHT22;5030;51.532;6.766;2023-02-01T16:47:21;7.50;99.90
9980;DHT22;5030;51.532;6.766;2023-02-01T16:49:47;7.60;99.90
9980;DHT22;5030;51.532;6.766;2023-02-01T16:52:18;7.60;99.90
9980;DHT22;5030;51.532;6.766;2023-02-01T16:54:45;7.60;99.90
9980;DHT22;5030;51.532;6.766;2023-02-01T16:57:12;7.70;99.90
9980;DHT22;5030;51.532;6.766;2023-02-01T16:59:39;7.70;99.90
9980;DHT22;5030;51.532;6.766;2023-02-01T17:02:05;7.70;99.90
9980;DHT22;5030;51.532;6.766;2023-02-01T17:04:31;7.80;99.90
9980;DHT22;5030;51.532;6.766;2023-02-01T17:06:57;7.90;99.90
9980;DHT22;5030;51.532;6.766;2023-02-01T17:09:23;7.90;99.90
9980;DHT22;5030;51.532;6.766;2023-02-01T17:11:50;7.90;99.90
9980;DHT22;5030;51.532;6.766;2023-02-01T17:14:18;8.00;99.90
9980;DHT22;5030;51.532;6.766;2023-02-01T17:16:46;8.00;99.90
9980;DHT22;5030;51.532;6.766;2023-02-01T17:19:17;8.00;99.90
9980;DHT22;5030;51.532;6.766;2023-02-01T17:21:46;8.00;99.90
9980;DHT22;5030;51.532;6.766;2023-02-01T17:24:18;8.00;99.90
9980;DHT22;5030;51.532;6.766;2023-02-01T17:26:44;8.00;99.90
9980;DHT22;5030;51.532;6.766;2023-02-01T17:29:11;7.90;99.90
9980;DHT22;5030;51.532;6.766;2023-02-01T17:31:39;8.00;99.90
9980;DHT22;5030;51.532;6.766;2023-02-01T17:34:06;8.10;99.90
9980;DHT22;5030;51.532;6.766;2023-02-01T17:36:33;8.00;99.90
9980;DHT22;5030;51.532;6.766;2023-02-01T17:39:01;7.90;99.90
9980;DHT22;5030;51.532;6.766;2023-02-01T17:41:26;7.80;99.90
9980;DHT22;5030;51.532;6.766;2023-02-01T17:43:52;7.80;99.90
9980;DHT22;5030;51.532;6.766;2023-02-01T17:46:18;7.90;99.90
9980;DHT22;5030;51.532;6.766;2023-02-01T17:48:45;7.90;99.90
9980;DHT22;5030;51.532;6.766;2023-02-01T17:51:16;7.80;99.90
9980;DHT22;5030;51.532;6.766;2023-02-01T17:53:42;7.80;99.90
9980;DHT22;5030;51.532;6.766;2023-02-01T17:56:16;7.90;99.90
9980;DHT22;5030;51.532;6.766;2023-02-01T17:58:42;7.80;99.90
9980;DHT22;5030;51.532;6.766;2023-02-01T18:01:22;7.80;99.90
9980;DHT22;5030;51.532;6.766;2023-02-01T18:03:49;7.80;99.90
9980;DHT22;5030;51.532;6.766;2023-02-01T18:06:18;7.70;99.90
9980;DHT22;5030;51.532;6.766;2023-02-01T18:08:44;7.70;99.90
9980;DHT22;5030;51.532;6.766;2023-02-01T18:11:23;7.70;99.90
9980;DHT22;5030;51.532;6.766;2023-02-01T18:13:51;7.60;99.90
9980;DHT22;5030;51.532;6.766;2023-02-01T18:18:46;7.70;99.90
9980;DHT22;5030;51.532;6.766;2023-02-01T18:21:13;7.70;99.90
9980;DHT22;5030;51.532;6.766;2023-02-01T18:23:38;7.70;99.90
9980;DHT22;5030;51.532;6.766;2023-02-01T18:26:04;7.70;99.90
9980;DHT22;5030;51.532;6.766;2023-02-01T18:28:30;7.70;99.90
9980;DHT22;5030;51.532;6.766;2023-02-01T18:30:56;7.70;99.90
9980;DHT22;5030;51.532;6.766;2023-02-01T18:33:22;7.80;99.90
9980;DHT22;5030;51.532;6.766;2023-02-01T18:35:48;7.80;99.90
9980;DHT22;5030;51.532;6.766;2023-02-01T18:38:14;7.90;99.90
9980;DHT22;5030;51.532;6.766;2023-02-01T18:40:49;7.90;99.90
9980;DHT22;5030;51.532;6.766;2023-02-01T18:43:18;7.90;99.90
9980;DHT22;5030;51.532;6.766;2023-02-01T18:45:45;7.90;99.90
9980;DHT22;5030;51.532;6.766;2023-02-01T18:48:13;7.90;99.90
9980;DHT22;5030;51.532;6.766;2023-02-01T18:50:41;7.90;99.90
9980;DHT22;5030;51.532;6.766;2023-02-01T18:53:16;7.90;99.90
9980;DHT22;5030;51.532;6.766;2023-02-01T18:55:45;7.90;99.90
9980;DHT22;5030;51.532;6.766;2023-02-01T18:58:13;7.80;99.90
9980;DHT22;5030;51.532;6.766;2023-02-01T19:00:41;7.90;99.90